sensor_id;sensor_type;location;lat;lon;timestamp;pressure;altitude;pressure_sealevel;temperature;humidity
17635;BME280;8936;49.010;12.120;2022-12-10T00:01:04;96638.59;;;3.74;100.00
17635;BME280;8936;49.010;12.120;2022-12-10T00:03:31;96636.38;;;3.66;100.00
17635;BME280;8936;49.010;12.120;2022-12-10T00:05:59;96639.91;;;3.50;100.00
17635;BME280;8936;49.010;12.120;2022-12-10T00:08:26;96645.63;;;3.37;100.00
17635;BME280;8936;49.010;12.120;2022-12-10T00:10:52;96649.69;;;3.76;100.00
17635;BME280;8936;49.010;12.120;2022-12-10T00:13:19;96646.13;;;3.60;100.00
17635;BME280;8936;49.010;12.120;2022-12-10T00:15:45;96641.88;;;3.86;100.00
17635;BME280;8936;49.010;12.120;2022-12-10T00:18:12;96650.63;;;3.92;100.00
17635;BME280;8936;49.010;12.120;2022-12-10T00:20:38;96652.56;;;4.33;100.00
17635;BME280;8936;49.010;12.120;2022-12-10T00:23:04;96669.34;;;4.59;100.00
17635;BME280;8936;49.010;12.120;2022-12-10T00:25:32;96665.78;;;4.80;100.00
17635;BME280;8936;49.010;12.120;2022-12-10T00:27:58;96670.09;;;4.91;100.00
17635;BME280;8936;49.010;12.120;2022-12-10T00:30:25;96664.28;;;4.94;100.00
17635;BME280;8936;49.010;12.120;2022-12-10T00:32:51;96663.19;;;4.90;100.00
17635;BME280;8936;49.010;12.120;2022-12-10T00:35:17;96664.00;;;4.96;100.00
17635;BME280;8936;49.010;12.120;2022-12-10T00:37:44;96656.69;;;4.61;100.00
17635;BME280;8936;49.010;12.120;2022-12-10T00:40:10;96659.00;;;4.52;100.00
17635;BME280;8936;49.010;12.120;2022-12-10T00:42:38;96657.88;;;4.38;100.00
17635;BME280;8936;49.010;12.120;2022-12-10T00:45:04;96664.50;;;4.09;100.00
17635;BME280;8936;49.010;12.120;2022-12-10T00:47:31;96654.09;;;4.29;100.00
17635;BME280;8936;49.010;12.120;2022-12-10T00:49:58;96669.13;;;4.23;100.00
17635;BME280;8936;49.010;12.120;2022-12-10T00:52:24;96684.31;;;4.43;100.00
17635;BME280;8936;49.010;12.120;2022-12-10T00:54:50;96688.44;;;4.61;100.00
17635;BME280;8936;49.010;12.120;2022-12-10T00:57:17;96681.44;;;4.45;100.00
17635;BME280;8936;49.010;12.120;2022-12-10T00:59:44;96680.25;;;4.30;100.00
17635;BME280;8936;49.010;12.120;2022-12-10T01:02:11;96672.78;;;4.54;100.00
17635;BME280;8936;49.010;12.120;2022-12-10T01:04:37;96668.25;;;4.50;100.00
17635;BME280;8936;49.010;12.120;2022-12-10T01:07:03;96663.78;;;4.18;100.00
17635;BME280;8936;49.010;12.120;2022-12-10T01:09:30;96668.00;;;4.14;100.00
17635;BME280;8936;49.010;12.120;2022-12-10T01:11:57;96666.03;;;4.36;100.00
17635;BME280;8936;49.010;12.120;2022-12-10T01:14:25;96670.81;;;4.40;100.00
17635;BME280;8936;49.010;12.120;2022-12-10T01:16:54;96672.81;;;4.22;100.00
17635;BME280;8936;49.010;12.120;2022-12-10T01:19:21;96677.66;;;4.35;100.00
17635;BME280;8936;49.010;12.120;2022-12-10T01:21:49;96674.44;;;4.28;100.00
17635;BME280;8936;49.010;12.120;2022-12-10T01:24:15;96690.16;;;4.45;100.00
17635;BME280;8936;49.010;12.120;2022-12-10T01:26:41;96688.38;;;4.56;100.00
17635;BME280;8936;49.010;12.120;2022-12-10T01:29:09;96687.22;;;4.78;100.00
17635;BME280;8936;49.010;12.120;2022-12-10T01:31:36;96695.22;;;4.94;100.00
17635;BME280;8936;49.010;12.120;2022-12-10T01:34:04;96695.81;;;5.06;100.00
17635;BME280;8936;49.010;12.120;2022-12-10T01:36:32;96686.50;;;4.93;100.00
17635;BME280;8936;49.010;12.120;2022-12-10T01:38:59;96704.16;;;4.82;100.00
17635;BME280;8936;49.010;12.120;2022-12-10T01:41:26;96709.25;;;4.94;100.00
17635;BME280;8936;49.010;12.120;2022-12-10T01:43:54;96709.84;;;5.06;100.00
17635;BME280;8936;49.010;12.120;2022-12-10T01:46:26;96708.84;;;5.17;100.00
17635;BME280;8936;49.010;12.120;2022-12-10T01:48:52;96711.25;;;5.24;100.00
17635;BME280;8936;49.010;12.120;2022-12-10T01:51:20;96708.09;;;5.27;100.00
17635;BME280;8936;49.010;12.120;2022-12-10T01:53:47;96704.41;;;5.28;100.00
17635;BME280;8936;49.010;12.120;2022-12-10T01:56:15;96710.50;;;5.28;100.00
17635;BME280;8936;49.010;12.120;2022-12-10T01:58:41;96715.78;;;5.28;100.00
17635;BME280;8936;49.010;12.120;2022-12-10T02:01:09;96711.81;;;5.31;100.00
17635;BME280;8936;49.010;12.120;2022-12-10T02:03:39;96714.19;;;5.27;100.00
17635;BME280;8936;49.010;12.120;2022-12-10T02:06:22;96705.72;;;5.35;100.00
17635;BME280;8936;49.010;12.120;2022-12-10T02:08:56;96724.53;;;5.34;100.00
17635;BME280;8936;49.010;12.120;2022-12-10T02:11:37;96724.53;;;5.34;100.00
17635;BME280;8936;49.010;12.120;2022-12-10T02:14:08;96735.34;;;5.27;100.00
17635;BME280;8936;49.010;12.120;2022-12-10T02:16:37;96724.78;;;5.27;100.00
17635;BME280;8936;49.010;12.120;2022-12-10T02:19:07;96728.75;;;5.30;100.00
17635;BME280;8936;49.010;12.120;2022-12-10T02:21:38;96730.34;;;5.36;100.00
17635;BME280;8936;49.010;12.120;2022-12-10T02:24:08;96715.78;;;5.33;100.00
17635;BME280;8936;49.010;12.120;2022-12-10T02:26:38;96718.69;;;4.80;100.00
17635;BME280;8936;49.010;12.120;2022-12-10T02:29:11;96721.16;;;4.55;100.00
17635;BME280;8936;49.010;12.120;2022-12-10T02:31:39;96718.69;;;4.43;100.00
17635;BME280;8936;49.010;12.120;2022-12-10T02:34:07;96709.38;;;4.35;100.00
17635;BME280;8936;49.010;12.120;2022-12-10T02:36:35;96705.63;;;4.26;100.00
17635;BME280;8936;49.010;12.120;2022-12-10T02:39:04;96707.00;;;4.02;100.00
17635;BME280;8936;49.010;12.120;2022-12-10T02:41:33;96701.41;;;3.99;100.00
17635;BME280;8936;49.010;12.120;2022-12-10T02:44:00;96708.63;;;4.08;100.00
17635;BME280;8936;49.010;12.120;2022-12-10T02:46:30;96715.38;;;4.58;100.00
17635;BME280;8936;49.010;12.120;2022-12-10T02:48:58;96713.78;;;4.62;100.00
17635;BME280;8936;49.010;12.120;2022-12-10T02:51:26;96711.59;;;4.49;100.00
17635;BME280;8936;49.010;12.120;2022-12-10T02:53:58;96702.53;;;4.40;100.00
17635;BME280;8936;49.010;12.120;2022-12-10T02:56:26;96693.31;;;4.10;100.00
17635;BME280;8936;49.010;12.120;2022-12-10T02:58:57;96689.41;;;3.86;100.00
17635;BME280;8936;49.010;12.120;2022-12-10T03:01:32;96689.50;;;3.69;100.00
17635;BME280;8936;49.010;12.120;2022-12-10T03:04:05;96684.63;;;3.83;100.00
17635;BME280;8936;49.010;12.120;2022-12-10T03:06:34;96697.50;;;4.06;100.00
17635;BME280;8936;49.010;12.120;2022-12-10T03:09:03;96699.16;;;3.86;100.00
17635;BME280;8936;49.010;12.120;2022-12-10T03:11:31;96699.28;;;3.47;100.00
17635;BME280;8936;49.010;12.120;2022-12-10T03:13:58;96699.72;;;3.61;100.00
17635;BME280;8936;49.010;12.120;2022-12-10T03:16:28;96698.41;;;3.63;100.00
17635;BME280;8936;49.010;12.120;2022-12-10T03:18:57;96694.44;;;3.61;100.00
17635;BME280;8936;49.010;12.120;2022-12-10T03:21:26;96695.78;;;3.42;100.00
17635;BME280;8936;49.010;12.120;2022-12-10T03:23:54;96710.91;;;3.73;100.00
17635;BME280;8936;49.010;12.120;2022-12-10T03:26:20;96703.38;;;3.60;100.00
17635;BME280;8936;49.010;12.120;2022-12-10T03:28:48;96693.28;;;3.52;100.00
17635;BME280;8936;49.010;12.120;2022-12-10T03:31:16;96692.13;;;3.43;100.00
17635;BME280;8936;49.010;12.120;2022-12-10T03:33:43;96689.13;;;3.34;100.00
17635;BME280;8936;49.010;12.120;2022-12-10T03:36:12;96681.38;;;3.49;100.00
17635;BME280;8936;49.010;12.120;2022-12-10T03:38:39;96688.13;;;3.94;100.00
17635;BME280;8936;49.010;12.120;2022-12-10T03:41:06;96693.31;;;4.10;100.00
17635;BME280;8936;49.010;12.120;2022-12-10T03:43:32;96691.69;;;4.36;100.00
17635;BME280;8936;49.010;12.120;2022-12-10T03:45:58;96690.56;;;4.64;100.00
17635;BME280;8936;49.010;12.120;2022-12-10T03:48:25;96690.34;;;4.70;100.00
17635;BME280;8936;49.010;12.120;2022-12-10T03:50:51;96684.59;;;4.83;100.00
17635;BME280;8936;49.010;12.120;2022-12-10T03:53:19;96686.81;;;4.55;100.00
17635;BME280;8936;49.010;12.120;2022-12-10T03:55:45;96682.63;;;4.27;100.00
17635;BME280;8936;49.010;12.120;2022-12-10T03:58:11;96682.56;;;4.54;100.00
17635;BME280;8936;49.010;12.120;2022-12-10T04:00:38;96688.19;;;4.67;100.00
17635;BME280;8936;49.010;12.120;2022-12-10T04:03:04;96691.94;;;4.40;100.00
17635;BME280;8936;49.010;12.120;2022-12-10T04:05:30;96684.59;;;4.42;100.00
17635;BME280;8936;49.010;12.120;2022-12-10T04:07:57;96689.13;;;4.14;100.00
17635;BME280;8936;49.010;12.120;2022-12-10T04:10:24;96693.53;;;3.77;100.00
17635;BME280;8936;49.010;12.120;2022-12-10T04:12:50;96692.53;;;3.83;100.00
17635;BME280;8936;49.010;12.120;2022-12-10T04:15:31;96697.38;;;4.23;100.00
17635;BME280;8936;49.010;12.120;2022-12-10T04:18:15;96697.47;;;4.33;100.00
17635;BME280;8936;49.010;12.120;2022-12-10T04:20:41;96693.72;;;4.24;100.00
17635;BME280;8936;49.010;12.120;2022-12-10T04:23:25;96685.09;;;4.07;100.00
17635;BME280;8936;49.010;12.120;2022-12-10T04:26:11;96681.06;;;3.99;100.00
17635;BME280;8936;49.010;12.120;2022-12-10T04:28:55;96689.66;;;4.16;100.00
17635;BME280;8936;49.010;12.120;2022-12-10T04:31:21;96689.00;;;4.31;100.00
17635;BME280;8936;49.010;12.120;2022-12-10T04:33:48;96692.94;;;4.28;100.00
17635;BME280;8936;49.010;12.120;2022-12-10T04:36:14;96691.03;;;4.56;100.00
17635;BME280;8936;49.010;12.120;2022-12-10T04:38:40;96698.03;;;4.77;100.00
17635;BME280;8936;49.010;12.120;2022-12-10T04:41:07;96701.16;;;4.69;100.00
17635;BME280;8936;49.010;12.120;2022-12-10T04:43:41;96698.97;;;4.98;100.00
17635;BME280;8936;49.010;12.120;2022-12-10T04:46:08;96705.31;;;5.02;100.00
17635;BME280;8936;49.010;12.120;2022-12-10T04:48:34;96704.03;;;5.04;100.00
17635;BME280;8936;49.010;12.120;2022-12-10T04:51:01;96689.94;;;4.99;100.00
17635;BME280;8936;49.010;12.120;2022-12-10T04:53:27;96689.56;;;4.75;100.00
17635;BME280;8936;49.010;12.120;2022-12-10T04:55:54;96698.00;;;4.72;100.00
17635;BME280;8936;49.010;12.120;2022-12-10T04:58:20;96697.59;;;4.90;100.00
17635;BME280;8936;49.010;12.120;2022-12-10T05:00:48;96687.03;;;4.95;100.00
17635;BME280;8936;49.010;12.120;2022-12-10T05:03:14;96681.19;;;4.93;100.00
17635;BME280;8936;49.010;12.120;2022-12-10T05:05:40;96686.75;;;4.50;100.00
17635;BME280;8936;49.010;12.120;2022-12-10T05:08:07;96702.06;;;4.16;100.00
17635;BME280;8936;49.010;12.120;2022-12-10T05:10:33;96703.41;;;4.18;100.00
17635;BME280;8936;49.010;12.120;2022-12-10T05:13:00;96695.84;;;4.64;100.00
17635;BME280;8936;49.010;12.120;2022-12-10T05:15:26;96702.56;;;4.81;100.00
17635;BME280;8936;49.010;12.120;2022-12-10T05:17:54;96695.59;;;4.65;100.00
17635;BME280;8936;49.010;12.120;2022-12-10T05:20:20;96703.28;;;4.67;100.00
17635;BME280;8936;49.010;12.120;2022-12-10T05:22:46;96705.88;;;4.62;100.00
17635;BME280;8936;49.010;12.120;2022-12-10T05:25:30;96707.56;;;4.09;100.00
17635;BME280;8936;49.010;12.120;2022-12-10T05:28:17;96711.47;;;4.02;100.00
17635;BME280;8936;49.010;12.120;2022-12-10T05:30:43;96711.47;;;4.02;100.00
17635;BME280;8936;49.010;12.120;2022-12-10T05:33:11;96719.13;;;4.30;100.00
17635;BME280;8936;49.010;12.120;2022-12-10T05:35:37;96717.66;;;3.86;100.00
17635;BME280;8936;49.010;12.120;2022-12-10T05:38:03;96720.50;;;3.79;100.00
17635;BME280;8936;49.010;12.120;2022-12-10T05:40:30;96701.78;;;4.12;100.00
17635;BME280;8936;49.010;12.120;2022-12-10T05:42:56;96701.59;;;3.92;100.00
17635;BME280;8936;49.010;12.120;2022-12-10T05:45:22;96702.94;;;3.95;100.00
17635;BME280;8936;49.010;12.120;2022-12-10T05:47:49;96705.69;;;3.78;100.00
17635;BME280;8936;49.010;12.120;2022-12-10T05:50:16;96703.38;;;3.60;100.00
17635;BME280;8936;49.010;12.120;2022-12-10T05:52:43;96711.25;;;3.81;100.00
17635;BME280;8936;49.010;12.120;2022-12-10T05:55:09;96708.97;;;3.90;100.00
17635;BME280;8936;49.010;12.120;2022-12-10T05:57:35;96717.53;;;4.29;100.00
17635;BME280;8936;49.010;12.120;2022-12-10T06:00:02;96720.34;;;4.17;100.00
17635;BME280;8936;49.010;12.120;2022-12-10T06:02:29;96726.69;;;4.21;100.00
17635;BME280;8936;49.010;12.120;2022-12-10T06:04:58;96719.91;;;4.30;100.00
17635;BME280;8936;49.010;12.120;2022-12-10T06:07:25;96724.09;;;4.26;100.00
17635;BME280;8936;49.010;12.120;2022-12-10T06:09:52;96716.13;;;4.21;100.00
17635;BME280;8936;49.010;12.120;2022-12-10T06:12:18;96709.47;;;4.14;100.00
17635;BME280;8936;49.010;12.120;2022-12-10T06:14:44;96712.47;;;4.27;100.00
17635;BME280;8936;49.010;12.120;2022-12-10T06:17:12;96706.75;;;4.09;100.00
17635;BME280;8936;49.010;12.120;2022-12-10T06:19:38;96706.53;;;4.10;100.00
17635;BME280;8936;49.010;12.120;2022-12-10T06:22:04;96714.47;;;3.84;100.00
17635;BME280;8936;49.010;12.120;2022-12-10T06:24:32;96712.28;;;4.02;100.00
17635;BME280;8936;49.010;12.120;2022-12-10T06:26:58;96710.72;;;4.06;100.00
17635;BME280;8936;49.010;12.120;2022-12-10T06:29:24;96706.00;;;4.08;100.00
17635;BME280;8936;49.010;12.120;2022-12-10T06:31:51;96715.25;;;3.84;100.00
17635;BME280;8936;49.010;12.120;2022-12-10T06:34:17;96721.66;;;3.66;100.00
17635;BME280;8936;49.010;12.120;2022-12-10T06:36:43;96716.75;;;3.53;100.00
17635;BME280;8936;49.010;12.120;2022-12-10T06:39:10;96722.03;;;3.53;100.00
17635;BME280;8936;49.010;12.120;2022-12-10T06:41:37;96728.19;;;3.59;100.00
17635;BME280;8936;49.010;12.120;2022-12-10T06:44:08;96741.78;;;3.72;100.00
17635;BME280;8936;49.010;12.120;2022-12-10T06:46:35;96741.97;;;4.14;100.00
17635;BME280;8936;49.010;12.120;2022-12-10T06:49:01;96743.13;;;4.23;100.00
17635;BME280;8936;49.010;12.120;2022-12-10T06:51:28;96740.19;;;4.25;100.00
17635;BME280;8936;49.010;12.120;2022-12-10T06:53:54;96749.97;;;4.24;100.00
17635;BME280;8936;49.010;12.120;2022-12-10T06:56:21;96743.16;;;4.28;100.00
17635;BME280;8936;49.010;12.120;2022-12-10T06:58:49;96744.31;;;4.11;100.00
17635;BME280;8936;49.010;12.120;2022-12-10T07:01:16;96739.88;;;4.16;100.00
17635;BME280;8936;49.010;12.120;2022-12-10T07:03:46;96747.72;;;4.38;100.00
17635;BME280;8936;49.010;12.120;2022-12-10T07:06:13;96741.00;;;4.57;100.00
17635;BME280;8936;49.010;12.120;2022-12-10T07:08:39;96740.31;;;4.40;100.00
17635;BME280;8936;49.010;12.120;2022-12-10T07:11:06;96738.25;;;4.15;100.00
17635;BME280;8936;49.010;12.120;2022-12-10T07:13:33;96746.25;;;4.20;100.00
17635;BME280;8936;49.010;12.120;2022-12-10T07:16:00;96750.16;;;4.45;100.00
17635;BME280;8936;49.010;12.120;2022-12-10T07:18:27;96751.28;;;4.54;100.00
17635;BME280;8936;49.010;12.120;2022-12-10T07:20:53;96739.91;;;4.53;100.00
17635;BME280;8936;49.010;12.120;2022-12-10T07:23:20;96744.03;;;4.12;100.00
17635;BME280;8936;49.010;12.120;2022-12-10T07:25:46;96739.72;;;4.01;100.00
17635;BME280;8936;49.010;12.120;2022-12-10T07:28:13;96739.00;;;4.38;100.00
17635;BME280;8936;49.010;12.120;2022-12-10T07:30:39;96733.03;;;4.52;100.00
17635;BME280;8936;49.010;12.120;2022-12-10T07:33:06;96739.22;;;4.04;100.00
17635;BME280;8936;49.010;12.120;2022-12-10T07:35:33;96749.47;;;3.74;100.00
17635;BME280;8936;49.010;12.120;2022-12-10T07:37:59;96744.03;;;4.12;100.00
17635;BME280;8936;49.010;12.120;2022-12-10T07:40:25;96739.34;;;3.66;100.00
17635;BME280;8936;49.010;12.120;2022-12-10T07:42:52;96741.28;;;3.49;100.00
17635;BME280;8936;49.010;12.120;2022-12-10T07:45:18;96751.81;;;3.70;100.00
17635;BME280;8936;49.010;12.120;2022-12-10T07:47:44;96736.38;;;4.11;100.00
17635;BME280;8936;49.010;12.120;2022-12-10T07:50:12;96746.44;;;3.87;100.00
17635;BME280;8936;49.010;12.120;2022-12-10T07:52:38;96749.47;;;3.74;100.00
17635;BME280;8936;49.010;12.120;2022-12-10T07:55:05;96748.06;;;3.45;100.00
17635;BME280;8936;49.010;12.120;2022-12-10T07:57:31;96742.31;;;3.26;100.00
17635;BME280;8936;49.010;12.120;2022-12-10T07:59:57;96755.97;;;3.23;100.00
17635;BME280;8936;49.010;12.120;2022-12-10T08:02:24;96768.22;;;3.51;100.00
17635;BME280;8936;49.010;12.120;2022-12-10T08:04:50;96772.50;;;3.78;100.00
17635;BME280;8936;49.010;12.120;2022-12-10T08:07:18;96779.72;;;3.88;100.00
17635;BME280;8936;49.010;12.120;2022-12-10T08:09:44;96788.28;;;3.95;100.00
17635;BME280;8936;49.010;12.120;2022-12-10T08:12:10;96790.41;;;3.98;100.00
17635;BME280;8936;49.010;12.120;2022-12-10T08:14:37;96788.53;;;4.20;100.00
17635;BME280;8936;49.010;12.120;2022-12-10T08:17:03;96790.75;;;3.80;100.00
17635;BME280;8936;49.010;12.120;2022-12-10T08:19:29;96779.56;;;3.73;100.00
17635;BME280;8936;49.010;12.120;2022-12-10T08:21:56;96776.00;;;3.62;100.00
17635;BME280;8936;49.010;12.120;2022-12-10T08:24:23;96772.88;;;3.44;100.00
17635;BME280;8936;49.010;12.120;2022-12-10T08:26:50;96764.91;;;3.39;100.00
17635;BME280;8936;49.010;12.120;2022-12-10T08:29:16;96774.16;;;3.63;100.00
17635;BME280;8936;49.010;12.120;2022-12-10T08:31:42;96763.94;;;3.71;100.00
17635;BME280;8936;49.010;12.120;2022-12-10T08:34:10;96777.47;;;3.75;100.00
17635;BME280;8936;49.010;12.120;2022-12-10T08:36:37;96775.22;;;3.84;100.00
17635;BME280;8936;49.010;12.120;2022-12-10T08:39:04;96782.31;;;3.83;100.00
17635;BME280;8936;49.010;12.120;2022-12-10T08:41:31;96771.84;;;3.93;100.00
17635;BME280;8936;49.010;12.120;2022-12-10T08:43:58;96773.50;;;3.99;100.00
17635;BME280;8936;49.010;12.120;2022-12-10T08:46:24;96773.75;;;3.98;100.00
17635;BME280;8936;49.010;12.120;2022-12-10T08:48:51;96775.44;;;3.82;100.00
17635;BME280;8936;49.010;12.120;2022-12-10T08:51:18;96770.66;;;3.79;100.00
17635;BME280;8936;49.010;12.120;2022-12-10T08:53:45;96769.44;;;3.65;100.00
17635;BME280;8936;49.010;12.120;2022-12-10T08:56:11;96781.53;;;3.83;100.00
17635;BME280;8936;49.010;12.120;2022-12-10T08:58:39;96776.25;;;3.83;100.00
17635;BME280;8936;49.010;12.120;2022-12-10T09:01:06;96779.31;;;3.74;100.00
17635;BME280;8936;49.010;12.120;2022-12-10T09:03:33;96786.88;;;3.66;100.00
17635;BME280;8936;49.010;12.120;2022-12-10T09:06:01;96791.59;;;3.64;100.00
17635;BME280;8936;49.010;12.120;2022-12-10T09:08:27;96796.34;;;3.84;100.00
17635;BME280;8936;49.010;12.120;2022-12-10T09:10:54;96795.41;;;3.73;100.00
17635;BME280;8936;49.010;12.120;2022-12-10T09:13:20;96792.69;;;3.90;100.00
17635;BME280;8936;49.010;12.120;2022-12-10T09:15:51;96793.47;;;3.90;100.00
17635;BME280;8936;49.010;12.120;2022-12-10T09:18:18;96794.91;;;3.76;100.00
17635;BME280;8936;49.010;12.120;2022-12-10T09:20:44;96788.28;;;3.95;100.00
17635;BME280;8936;49.010;12.120;2022-12-10T09:23:10;96789.91;;;4.01;100.00
17635;BME280;8936;49.010;12.120;2022-12-10T09:25:37;96788.75;;;3.92;100.00
17635;BME280;8936;49.010;12.120;2022-12-10T09:28:03;96801.75;;;4.20;100.00
17635;BME280;8936;49.010;12.120;2022-12-10T09:30:30;96793.63;;;4.27;100.00
17635;BME280;8936;49.010;12.120;2022-12-10T09:32:57;96797.84;;;4.55;100.00
17635;BME280;8936;49.010;12.120;2022-12-10T09:35:24;96791.88;;;4.43;100.00
17635;BME280;8936;49.010;12.120;2022-12-10T09:37:50;96797.25;;;4.48;100.00
17635;BME280;8936;49.010;12.120;2022-12-10T09:40:16;96790.59;;;4.18;100.00
17635;BME280;8936;49.010;12.120;2022-12-10T09:42:46;96796.09;;;4.12;100.00
17635;BME280;8936;49.010;12.120;2022-12-10T09:45:18;96791.59;;;4.12;100.00
17635;BME280;8936;49.010;12.120;2022-12-10T09:47:49;96786.22;;;4.29;100.00
17635;BME280;8936;49.010;12.120;2022-12-10T09:50:21;96788.75;;;4.19;100.00
17635;BME280;8936;49.010;12.120;2022-12-10T09:52:51;96788.41;;;3.84;100.00
17635;BME280;8936;49.010;12.120;2022-12-10T09:55:20;96782.56;;;3.81;100.00
17635;BME280;8936;49.010;12.120;2022-12-10T09:57:49;96780.53;;;3.89;100.00
17635;BME280;8936;49.010;12.120;2022-12-10T10:00:21;96781.22;;;3.79;100.00
17635;BME280;8936;49.010;12.120;2022-12-10T10:02:48;96774.03;;;3.74;100.00
17635;BME280;8936;49.010;12.120;2022-12-10T10:05:17;96766.00;;;3.64;100.00
17635;BME280;8936;49.010;12.120;2022-12-10T10:07:47;96762.31;;;3.44;100.00
17635;BME280;8936;49.010;12.120;2022-12-10T10:10:18;96766.69;;;3.33;100.00
17635;BME280;8936;49.010;12.120;2022-12-10T10:12:45;96769.31;;;3.55;100.00
17635;BME280;8936;49.010;12.120;2022-12-10T10:15:13;96768.06;;;3.41;100.00
17635;BME280;8936;49.010;12.120;2022-12-10T10:17:40;96770.34;;;3.54;100.00
17635;BME280;8936;49.010;12.120;2022-12-10T10:20:10;96777.41;;;3.70;100.00
17635;BME280;8936;49.010;12.120;2022-12-10T10:22:37;96779.44;;;3.85;100.00
17635;BME280;8936;49.010;12.120;2022-12-10T10:25:05;96769.44;;;3.87;100.00
17635;BME280;8936;49.010;12.120;2022-12-10T10:27:32;96770.38;;;4.02;100.00
17635;BME280;8936;49.010;12.120;2022-12-10T10:30:00;96776.25;;;4.09;100.00
17635;BME280;8936;49.010;12.120;2022-12-10T10:32:28;96773.66;;;4.41;100.00
17635;BME280;8936;49.010;12.120;2022-12-10T10:35:19;96782.19;;;4.21;100.00
17635;BME280;8936;49.010;12.120;2022-12-10T10:37:46;96786.41;;;4.49;100.00
17635;BME280;8936;49.010;12.120;2022-12-10T10:40:21;96795.34;;;4.75;100.00
17635;BME280;8936;49.010;12.120;2022-12-10T10:42:51;96794.69;;;4.58;100.00
17635;BME280;8936;49.010;12.120;2022-12-10T10:45:34;96795.19;;;4.55;100.00
17635;BME280;8936;49.010;12.120;2022-12-10T10:48:05;96780.28;;;4.75;100.00
17635;BME280;8936;49.010;12.120;2022-12-10T10:50:36;96782.88;;;4.12;100.00
17635;BME280;8936;49.010;12.120;2022-12-10T10:53:10;96780.94;;;4.29;100.00
17635;BME280;8936;49.010;12.120;2022-12-10T10:55:46;96777.09;;;4.42;100.00
17635;BME280;8936;49.010;12.120;2022-12-10T10:58:15;96778.09;;;4.35;100.00
17635;BME280;8936;49.010;12.120;2022-12-10T11:00:43;96776.19;;;4.31;100.00
17635;BME280;8936;49.010;12.120;2022-12-10T11:03:18;96765.22;;;4.44;100.00
17635;BME280;8936;49.010;12.120;2022-12-10T11:05:46;96757.91;;;4.24;100.00
17635;BME280;8936;49.010;12.120;2022-12-10T11:08:13;96765.75;;;4.14;100.00
17635;BME280;8936;49.010;12.120;2022-12-10T11:10:47;96761.66;;;4.28;100.00
17635;BME280;8936;49.010;12.120;2022-12-10T11:13:18;96765.88;;;4.29;100.00
17635;BME280;8936;49.010;12.120;2022-12-10T11:15:45;96766.41;;;4.26;100.00
17635;BME280;8936;49.010;12.120;2022-12-10T11:18:25;96762.47;;;4.34;100.00
17635;BME280;8936;49.010;12.120;2022-12-10T11:20:56;96764.75;;;4.20;100.00
17635;BME280;8936;49.010;12.120;2022-12-10T11:23:22;96750.56;;;4.31;100.00
17635;BME280;8936;49.010;12.120;2022-12-10T11:25:55;96749.25;;;4.02;100.00
17635;BME280;8936;49.010;12.120;2022-12-10T11:28:29;96742.25;;;4.18;100.00
17635;BME280;8936;49.010;12.120;2022-12-10T11:31:03;96741.06;;;4.04;100.00
17635;BME280;8936;49.010;12.120;2022-12-10T11:33:39;96735.28;;;4.07;100.00
17635;BME280;8936;49.010;12.120;2022-12-10T11:36:13;96735.28;;;4.07;100.00
17635;BME280;8936;49.010;12.120;2022-12-10T11:38:44;96724.41;;;4.03;100.00
17635;BME280;8936;49.010;12.120;2022-12-10T11:41:16;96735.88;;;3.87;100.00
17635;BME280;8936;49.010;12.120;2022-12-10T11:43:47;96727.53;;;3.95;100.00
17635;BME280;8936;49.010;12.120;2022-12-10T11:46:21;96735.97;;;3.97;100.00
17635;BME280;8936;49.010;12.120;2022-12-10T11:48:53;96742.91;;;3.76;100.00
17635;BME280;8936;49.010;12.120;2022-12-10T11:51:24;96741.19;;;3.65;100.00
17635;BME280;8936;49.010;12.120;2022-12-10T11:53:59;96744.38;;;3.89;100.00
17635;BME280;8936;49.010;12.120;2022-12-10T11:56:31;96751.66;;;4.09;100.00
17635;BME280;8936;49.010;12.120;2022-12-10T11:59:11;96749.53;;;4.32;100.00
17635;BME280;8936;49.010;12.120;2022-12-10T12:01:50;96747.44;;;4.71;100.00
17635;BME280;8936;49.010;12.120;2022-12-10T12:04:32;96749.66;;;4.79;100.00
17635;BME280;8936;49.010;12.120;2022-12-10T12:07:09;96745.16;;;4.48;100.00
17635;BME280;8936;49.010;12.120;2022-12-10T12:09:44;96752.00;;;4.76;100.00
17635;BME280;8936;49.010;12.120;2022-12-10T12:12:16;96755.97;;;4.78;100.00
17635;BME280;8936;49.010;12.120;2022-12-10T12:14:46;96749.84;;;4.73;100.00
17635;BME280;8936;49.010;12.120;2022-12-10T12:17:15;96759.63;;;4.72;100.00
17635;BME280;8936;49.010;12.120;2022-12-10T12:19:44;96757.28;;;4.44;100.00
17635;BME280;8936;49.010;12.120;2022-12-10T12:22:14;96754.69;;;4.49;100.00
17635;BME280;8936;49.010;12.120;2022-12-10T12:24:41;96751.38;;;4.64;100.00
17635;BME280;8936;49.010;12.120;2022-12-10T12:27:12;96764.94;;;4.46;100.00
17635;BME280;8936;49.010;12.120;2022-12-10T12:29:44;96767.03;;;4.70;100.00
17635;BME280;8936;49.010;12.120;2022-12-10T12:32:15;96761.38;;;4.57;100.00
17635;BME280;8936;49.010;12.120;2022-12-10T12:34:44;96760.03;;;4.27;100.00
17635;BME280;8936;49.010;12.120;2022-12-10T12:37:14;96753.81;;;4.39;100.00
17635;BME280;8936;49.010;12.120;2022-12-10T12:39:43;96756.69;;;4.05;100.00
17635;BME280;8936;49.010;12.120;2022-12-10T12:42:13;96756.72;;;4.10;100.00
17635;BME280;8936;49.010;12.120;2022-12-10T12:44:46;96759.63;;;4.41;100.00
17635;BME280;8936;49.010;12.120;2022-12-10T12:47:19;96754.09;;;4.42;100.00
17635;BME280;8936;49.010;12.120;2022-12-10T12:49:48;96757.38;;;4.54;100.00
17635;BME280;8936;49.010;12.120;2022-12-10T12:52:18;96759.09;;;4.39;100.00
17635;BME280;8936;49.010;12.120;2022-12-10T12:54:49;96754.06;;;4.37;100.00
17635;BME280;8936;49.010;12.120;2022-12-10T12:57:20;96752.00;;;4.44;100.00
17635;BME280;8936;49.010;12.120;2022-12-10T12:59:55;96755.31;;;4.61;100.00
17635;BME280;8936;49.010;12.120;2022-12-10T13:02:40;96763.53;;;4.65;100.00
17635;BME280;8936;49.010;12.120;2022-12-10T13:05:12;96746.59;;;4.61;100.00
17635;BME280;8936;49.010;12.120;2022-12-10T13:07:38;96752.50;;;4.41;100.00